Terminal Aerodrome Forecast
Issued by NWS Northern Indiana

Home | Current Version | Previous Version | Text Only | Print | Product List | Glossary On
Versions: 1 2 3 4 5 6 7 8 9 10 11 12 13 14 15 16 17
000
FTUS43 KIWX 121100
TAFFWA
TAF
KFWA 121123Z 1212/1312 04008KT P6SM SCT015 OVC025
      TEMPO 1212/1214 OVC015
     FM121600 03007KT P6SM OVC035
     FM130900 32006KT P6SM VCSH OVC030
      TEMPO 1309/1312 4SM -RA BR OVC025=

USA.gov is the U.S. government's official web portal to all federal, state and local government web resources and services.